Terminal Aerodrome Forecast
Issued by NWS

Home | Current Version | Previous Version | Text Only | Print | Product List | Glossary On
Versions: 1 2 3 4 5 6 7 8 9 10 11 12 13 14 15 16 17 18 19 20 21 22 23 24 25 26 27 28 29 30 31 32
000
FTUS43 KFGF 221133
TAFDVL
TAF
KDVL 221133Z 2212/2312 01008KT P6SM OVC006
      TEMPO 2212/2214 4SM -SN BR BKN003
     FM221400 03012KT P6SM -RASN OVC006
      TEMPO 2214/2217 3SM -SN
     FM221700 03012KT P6SM -SN OVC008
     FM222000 02013KT P6SM OVC015=

USA.gov is the U.S. government's official web portal to all federal, state and local government web resources and services.